EJU84VD EGCC-LIRN
Flight info
| Callsign | EJU84VD |
|---|---|
| Flight time | 2h 38m |
| Altitude | 35000 |
| Route | SANBA N859 HON UL612 OGULO DCT OKASI DCT OKEKO DCT MOU DCT MADIV DCT MOKIP DCT TUFTA DCT KOGAS/N0450F370 DCT MEDAM DCT NITAM DCT MOGBO DCT EVROG DCT BAKRO DCT MEDAL DCT RAVAL DCT ELVIN DCT RIFFI/N0367F190 M729 PNZ |
| Aircraft | A320/M-SDE3FGHIRWY/LB1 |
Departure
| Time | 2026-05-07 04:48 |
|---|---|
| Airport | Manchester Airport (EGCC) |
Arrival
| Time | 2026-05-07 07:26 |
|---|---|
| Airport | Naples International Airport (LIRN) |
| Time | Latitude | Longitude | Altitude | Speed | Heading |
|---|---|---|---|---|---|
| 2026-05-07 04:34 | 53.36467 | -2.27793 | 255 ft | 0 kts | 45° |
| 2026-05-07 04:40 | 53.36460 | -2.27804 | 255 ft | 4 kts | 44° |
| 2026-05-07 04:40 | 53.36440 | -2.27836 | 255 ft | 4 kts | 43° |
| 2026-05-07 04:40 | 53.36422 | -2.27867 | 255 ft | 4 kts | 53° |
| 2026-05-07 04:41 | 53.36412 | -2.27901 | 255 ft | 4 kts | 122° |
| 2026-05-07 04:41 | 53.36417 | -2.27912 | 255 ft | 0 kts | 135° |
| 2026-05-07 04:43 | 53.36399 | -2.27916 | 255 ft | 4 kts | 216° |
| 2026-05-07 04:43 | 53.36370 | -2.27967 | 255 ft | 10 kts | 225° |
| 2026-05-07 04:43 | 53.36303 | -2.28061 | 255 ft | 11 kts | 204° |
| 2026-05-07 04:44 | 53.36222 | -2.28088 | 255 ft | 12 kts | 174° |
| 2026-05-07 04:44 | 53.36154 | -2.27996 | 255 ft | 14 kts | 134° |
| 2026-05-07 04:44 | 53.36079 | -2.27872 | 255 ft | 16 kts | 138° |
| 2026-05-07 04:44 | 53.35994 | -2.27834 | 255 ft | 13 kts | 185° |
| 2026-05-07 04:45 | 53.35897 | -2.27850 | 255 ft | 13 kts | 180° |
| 2026-05-07 04:45 | 53.35823 | -2.27754 | 255 ft | 15 kts | 131° |
| 2026-05-07 04:45 | 53.35743 | -2.27649 | 255 ft | 15 kts | 158° |
| 2026-05-07 04:45 | 53.35648 | -2.27562 | 256 ft | 17 kts | 142° |
| 2026-05-07 04:46 | 53.35552 | -2.27432 | 255 ft | 19 kts | 140° |
| 2026-05-07 04:46 | 53.35456 | -2.27300 | 255 ft | 18 kts | 140° |
| 2026-05-07 04:46 | 53.35361 | -2.27192 | 249 ft | 14 kts | 165° |
| 2026-05-07 04:46 | 53.35250 | -2.27213 | 246 ft | 18 kts | 190° |
| 2026-05-07 04:47 | 53.35115 | -2.27261 | 243 ft | 21 kts | 191° |
| 2026-05-07 04:47 | 53.35003 | -2.27329 | 240 ft | 14 kts | 220° |
| 2026-05-07 04:47 | 53.34935 | -2.27468 | 237 ft | 19 kts | 231° |
| 2026-05-07 04:47 | 53.34718 | -2.27920 | 231 ft | 85 kts | 231° |
| 2026-05-07 04:48 | 53.34214 | -2.28962 | 218 ft | 142 kts | 231° |
| 2026-05-07 04:48 | 53.33520 | -2.30387 | 546 ft | 159 kts | 230° |
| 2026-05-07 04:48 | 53.32830 | -2.31825 | 1284 ft | 159 kts | 230° |
| 2026-05-07 04:48 | 53.32136 | -2.33301 | 1765 ft | 171 kts | 234° |
| 2026-05-07 04:49 | 53.31829 | -2.35314 | 1998 ft | 193 kts | 282° |
| 2026-05-07 04:49 | 53.32443 | -2.37411 | 2249 ft | 214 kts | 305° |
| 2026-05-07 04:49 | 53.33074 | -2.39815 | 2575 ft | 240 kts | 281° |
| 2026-05-07 04:49 | 53.32981 | -2.42703 | 2992 ft | 260 kts | 249° |
| 2026-05-07 04:50 | 53.31960 | -2.45212 | 3775 ft | 265 kts | 219° |
| 2026-05-07 04:50 | 53.30306 | -2.46540 | 4609 ft | 269 kts | 189° |
| 2026-05-07 04:50 | 53.28446 | -2.46267 | 5401 ft | 273 kts | 157° |
| 2026-05-07 04:50 | 53.26779 | -2.44722 | 6204 ft | 277 kts | 149° |
| 2026-05-07 04:51 | 53.25090 | -2.43122 | 6981 ft | 281 kts | 151° |
| 2026-05-07 04:51 | 53.23352 | -2.41574 | 7743 ft | 285 kts | 152° |
| 2026-05-07 04:51 | 53.21583 | -2.40039 | 8497 ft | 289 kts | 153° |
| 2026-05-07 04:51 | 53.19775 | -2.38483 | 9255 ft | 294 kts | 153° |
| 2026-05-07 04:52 | 53.17946 | -2.36908 | 9999 ft | 299 kts | 153° |
| 2026-05-07 04:52 | 53.16100 | -2.35313 | 10379 ft | 316 kts | 153° |
| 2026-05-07 04:52 | 53.14064 | -2.33548 | 10545 ft | 339 kts | 153° |
| 2026-05-07 04:52 | 53.11921 | -2.31682 | 10947 ft | 352 kts | 153° |
| 2026-05-07 04:53 | 53.09737 | -2.29773 | 11584 ft | 357 kts | 153° |
| 2026-05-07 04:53 | 53.07526 | -2.27839 | 12272 ft | 361 kts | 153° |
| 2026-05-07 04:53 | 53.05300 | -2.25895 | 12948 ft | 364 kts | 153° |
| 2026-05-07 04:53 | 53.03066 | -2.23950 | 13606 ft | 367 kts | 153° |
| 2026-05-07 04:54 | 53.00795 | -2.21977 | 14231 ft | 370 kts | 154° |
| 2026-05-07 04:54 | 52.98504 | -2.19988 | 14833 ft | 373 kts | 153° |
| 2026-05-07 04:54 | 52.96193 | -2.17981 | 15436 ft | 376 kts | 154° |
| 2026-05-07 04:54 | 52.93865 | -2.15967 | 16028 ft | 379 kts | 154° |
| 2026-05-07 04:55 | 52.91520 | -2.13939 | 16625 ft | 381 kts | 154° |
| 2026-05-07 04:55 | 52.89159 | -2.11898 | 17191 ft | 384 kts | 154° |
| 2026-05-07 04:55 | 52.86777 | -2.09844 | 17768 ft | 387 kts | 154° |
| 2026-05-07 04:55 | 52.84381 | -2.07778 | 18322 ft | 390 kts | 154° |
| 2026-05-07 04:56 | 52.81967 | -2.05698 | 18805 ft | 393 kts | 154° |
| 2026-05-07 04:56 | 52.79529 | -2.03602 | 19282 ft | 395 kts | 154° |
| 2026-05-07 04:56 | 52.77079 | -2.01501 | 19758 ft | 398 kts | 154° |
| 2026-05-07 04:56 | 52.74613 | -1.99398 | 20230 ft | 400 kts | 154° |
| 2026-05-07 04:57 | 52.72131 | -1.97284 | 20693 ft | 403 kts | 154° |
| 2026-05-07 04:57 | 52.69632 | -1.95155 | 21156 ft | 405 kts | 154° |
| 2026-05-07 04:57 | 52.67118 | -1.93009 | 21606 ft | 408 kts | 154° |
| 2026-05-07 04:57 | 52.64587 | -1.90849 | 22040 ft | 410 kts | 154° |
| 2026-05-07 04:58 | 52.62049 | -1.88686 | 22488 ft | 413 kts | 154° |
| 2026-05-07 04:58 | 52.59490 | -1.86506 | 22905 ft | 415 kts | 154° |
| 2026-05-07 04:58 | 52.56919 | -1.84318 | 23353 ft | 417 kts | 155° |
| 2026-05-07 04:58 | 52.54337 | -1.82126 | 23753 ft | 419 kts | 155° |
| 2026-05-07 04:59 | 52.51735 | -1.79918 | 24104 ft | 422 kts | 155° |
| 2026-05-07 04:59 | 52.49122 | -1.77705 | 24460 ft | 424 kts | 155° |
| 2026-05-07 04:59 | 52.46501 | -1.75491 | 24809 ft | 426 kts | 155° |
| 2026-05-07 04:59 | 52.43854 | -1.73260 | 25137 ft | 427 kts | 155° |
| 2026-05-07 05:00 | 52.41206 | -1.71035 | 25469 ft | 430 kts | 155° |
| 2026-05-07 05:00 | 52.38541 | -1.68800 | 25793 ft | 431 kts | 155° |
| 2026-05-07 05:00 | 52.35863 | -1.66552 | 26122 ft | 433 kts | 154° |
| 2026-05-07 05:00 | 52.33174 | -1.64306 | 26446 ft | 435 kts | 155° |
| 2026-05-07 05:01 | 52.30468 | -1.62064 | 26781 ft | 437 kts | 155° |
| 2026-05-07 05:01 | 52.27740 | -1.59826 | 27104 ft | 439 kts | 155° |
| 2026-05-07 05:01 | 52.24995 | -1.57593 | 27413 ft | 441 kts | 155° |
| 2026-05-07 05:01 | 52.22241 | -1.55356 | 27724 ft | 443 kts | 155° |
| 2026-05-07 05:02 | 52.19475 | -1.53103 | 28049 ft | 445 kts | 155° |
| 2026-05-07 05:02 | 52.16707 | -1.50846 | 28323 ft | 447 kts | 155° |
| 2026-05-07 05:02 | 52.13917 | -1.48568 | 28604 ft | 449 kts | 155° |
| 2026-05-07 05:02 | 52.11116 | -1.46285 | 28877 ft | 451 kts | 155° |
| 2026-05-07 05:03 | 52.08309 | -1.44002 | 29156 ft | 452 kts | 155° |
| 2026-05-07 05:03 | 52.05494 | -1.41714 | 29432 ft | 454 kts | 155° |
| 2026-05-07 05:03 | 52.02694 | -1.39438 | 29694 ft | 456 kts | 155° |
| 2026-05-07 05:03 | 51.99851 | -1.37134 | 29939 ft | 457 kts | 155° |
| 2026-05-07 05:04 | 51.96989 | -1.34821 | 30175 ft | 459 kts | 155° |
| 2026-05-07 05:04 | 51.94129 | -1.32513 | 30459 ft | 459 kts | 155° |
| 2026-05-07 05:04 | 51.91273 | -1.30217 | 30767 ft | 458 kts | 155° |
| 2026-05-07 05:04 | 51.88430 | -1.27936 | 31072 ft | 457 kts | 155° |
| 2026-05-07 05:05 | 51.85572 | -1.25643 | 31369 ft | 457 kts | 155° |
| 2026-05-07 05:05 | 51.82727 | -1.23361 | 31661 ft | 456 kts | 154° |
| 2026-05-07 05:05 | 51.79883 | -1.21076 | 31949 ft | 456 kts | 154° |
| 2026-05-07 05:05 | 51.77042 | -1.18800 | 32243 ft | 456 kts | 154° |
| 2026-05-07 05:06 | 51.75118 | -1.17259 | 32439 ft | 456 kts | 154° |
| 2026-05-07 05:06 | 51.71358 | -1.14254 | 32812 ft | 455 kts | 154° |
| 2026-05-07 05:06 | 51.69441 | -1.12722 | 32998 ft | 455 kts | 154° |
| 2026-05-07 05:06 | 51.65682 | -1.09726 | 33377 ft | 455 kts | 154° |
| 2026-05-07 05:07 | 51.63767 | -1.08206 | 33570 ft | 455 kts | 154° |
| 2026-05-07 05:07 | 51.60995 | -1.05758 | 33840 ft | 455 kts | 147° |
| 2026-05-07 05:07 | 51.58463 | -1.02905 | 34108 ft | 455 kts | 144° |
| 2026-05-07 05:07 | 51.56076 | -1.00169 | 34320 ft | 454 kts | 145° |
| 2026-05-07 05:08 | 51.53470 | -0.97190 | 34552 ft | 454 kts | 145° |
| 2026-05-07 05:08 | 51.50892 | -0.94254 | 34803 ft | 453 kts | 145° |
| 2026-05-07 05:08 | 51.48354 | -0.91369 | 34996 ft | 454 kts | 145° |
| 2026-05-07 05:08 | 51.45750 | -0.88565 | 35053 ft | 452 kts | 151° |
| 2026-05-07 05:09 | 51.40023 | -0.84504 | 35059 ft | 449 kts | 159° |
| 2026-05-07 05:09 | 51.34216 | -0.80810 | 35057 ft | 449 kts | 159° |
| 2026-05-07 05:10 | 51.28423 | -0.77107 | 35058 ft | 448 kts | 159° |
| 2026-05-07 05:10 | 51.22643 | -0.73413 | 35057 ft | 447 kts | 159° |
| 2026-05-07 05:11 | 51.16875 | -0.69752 | 35055 ft | 447 kts | 159° |
| 2026-05-07 05:11 | 51.11083 | -0.66095 | 35056 ft | 447 kts | 159° |
| 2026-05-07 05:12 | 51.05359 | -0.62268 | 35056 ft | 447 kts | 152° |
| 2026-05-07 05:12 | 51.00155 | -0.56864 | 35052 ft | 448 kts | 147° |
| 2026-05-07 05:13 | 50.95008 | -0.51375 | 35048 ft | 448 kts | 147° |
| 2026-05-07 05:13 | 50.89825 | -0.45893 | 35049 ft | 448 kts | 147° |
| 2026-05-07 05:14 | 50.84642 | -0.40422 | 35047 ft | 448 kts | 147° |
| 2026-05-07 05:14 | 50.83763 | -0.39491 | 35044 ft | 448 kts | 147° |
| 2026-05-07 05:15 | 50.79670 | -0.35147 | 35042 ft | 449 kts | 147° |
| 2026-05-07 05:15 | 50.74472 | -0.29657 | 35041 ft | 449 kts | 147° |
| 2026-05-07 05:16 | 50.69272 | -0.24193 | 35039 ft | 449 kts | 147° |
| 2026-05-07 05:16 | 50.64075 | -0.18742 | 35038 ft | 449 kts | 147° |
| 2026-05-07 05:17 | 50.58897 | -0.13321 | 35035 ft | 449 kts | 147° |
| 2026-05-07 05:17 | 50.53684 | -0.07873 | 35031 ft | 450 kts | 147° |
| 2026-05-07 05:18 | 50.48464 | -0.02437 | 35033 ft | 450 kts | 148° |
| 2026-05-07 05:18 | 50.43235 | 0.02990 | 35036 ft | 450 kts | 147° |
| 2026-05-07 05:19 | 50.38001 | 0.08397 | 35041 ft | 450 kts | 147° |
| 2026-05-07 05:19 | 50.32761 | 0.13796 | 35045 ft | 451 kts | 147° |
| 2026-05-07 05:20 | 50.27529 | 0.19202 | 35055 ft | 451 kts | 147° |
| 2026-05-07 05:20 | 50.22297 | 0.24580 | 35056 ft | 450 kts | 147° |
| 2026-05-07 05:21 | 50.14435 | 0.32633 | 35063 ft | 450 kts | 147° |
| 2026-05-07 05:22 | 50.09210 | 0.38002 | 35063 ft | 449 kts | 147° |
| 2026-05-07 05:22 | 50.03991 | 0.43358 | 35064 ft | 449 kts | 147° |
| 2026-05-07 05:23 | 49.98770 | 0.48689 | 35068 ft | 449 kts | 147° |
| 2026-05-07 05:23 | 49.93548 | 0.54018 | 35057 ft | 449 kts | 147° |
| 2026-05-07 05:24 | 49.88357 | 0.59294 | 35060 ft | 449 kts | 147° |
| 2026-05-07 05:24 | 49.83275 | 0.65006 | 35060 ft | 449 kts | 141° |
| 2026-05-07 05:25 | 49.78458 | 0.71063 | 35054 ft | 449 kts | 141° |
| 2026-05-07 05:25 | 49.73598 | 0.77188 | 35347 ft | 450 kts | 141° |
| 2026-05-07 05:25 | 49.71168 | 0.80238 | 35551 ft | 450 kts | 141° |
| 2026-05-07 05:26 | 49.68730 | 0.83296 | 35758 ft | 450 kts | 141° |
| 2026-05-07 05:26 | 49.66293 | 0.86343 | 35954 ft | 450 kts | 141° |
| 2026-05-07 05:26 | 49.63863 | 0.89376 | 36148 ft | 450 kts | 142° |
| 2026-05-07 05:26 | 49.61422 | 0.92418 | 36336 ft | 450 kts | 142° |
| 2026-05-07 05:27 | 49.58989 | 0.95442 | 36514 ft | 450 kts | 142° |
| 2026-05-07 05:27 | 49.56552 | 0.98475 | 36692 ft | 450 kts | 142° |
| 2026-05-07 05:27 | 49.54119 | 1.01506 | 36865 ft | 450 kts | 142° |
| 2026-05-07 05:27 | 49.51681 | 1.04538 | 37027 ft | 450 kts | 142° |
| 2026-05-07 05:28 | 49.49240 | 1.07564 | 37057 ft | 451 kts | 142° |
| 2026-05-07 05:28 | 49.44354 | 1.13597 | 37058 ft | 451 kts | 142° |
| 2026-05-07 05:29 | 49.39463 | 1.19619 | 37058 ft | 451 kts | 142° |
| 2026-05-07 05:29 | 49.34569 | 1.25640 | 37061 ft | 451 kts | 142° |
| 2026-05-07 05:30 | 49.29674 | 1.31657 | 37056 ft | 451 kts | 142° |
| 2026-05-07 05:30 | 49.24778 | 1.37663 | 37055 ft | 451 kts | 142° |
| 2026-05-07 05:31 | 49.19869 | 1.43642 | 37049 ft | 451 kts | 142° |
| 2026-05-07 05:31 | 49.14993 | 1.49575 | 37050 ft | 451 kts | 142° |
| 2026-05-07 05:32 | 49.10070 | 1.55557 | 37049 ft | 452 kts | 142° |
| 2026-05-07 05:32 | 49.05158 | 1.61515 | 37023 ft | 452 kts | 143° |
| 2026-05-07 05:33 | 49.00212 | 1.67481 | 37015 ft | 453 kts | 143° |
| 2026-05-07 05:33 | 48.95265 | 1.73432 | 37019 ft | 454 kts | 143° |
| 2026-05-07 05:34 | 48.90307 | 1.79391 | 37021 ft | 454 kts | 143° |
| 2026-05-07 05:34 | 48.85344 | 1.85344 | 37021 ft | 455 kts | 143° |
| 2026-05-07 05:35 | 48.80377 | 1.91288 | 37027 ft | 455 kts | 143° |
| 2026-05-07 05:35 | 48.76122 | 1.96358 | 37027 ft | 455 kts | 143° |
| 2026-05-07 05:36 | 48.71126 | 2.02286 | 37031 ft | 456 kts | 143° |
| 2026-05-07 05:36 | 48.66145 | 2.08205 | 37030 ft | 456 kts | 143° |
| 2026-05-07 05:37 | 48.61154 | 2.14129 | 37055 ft | 456 kts | 143° |
| 2026-05-07 05:37 | 48.56230 | 2.20162 | 37054 ft | 457 kts | 136° |
| 2026-05-07 05:38 | 48.51746 | 2.26969 | 37050 ft | 457 kts | 136° |
| 2026-05-07 05:38 | 48.47262 | 2.33771 | 37046 ft | 457 kts | 136° |
| 2026-05-07 05:39 | 48.42776 | 2.40562 | 37048 ft | 458 kts | 136° |
| 2026-05-07 05:39 | 48.38276 | 2.47347 | 37045 ft | 458 kts | 136° |
| 2026-05-07 05:40 | 48.33774 | 2.54115 | 37044 ft | 458 kts | 136° |
| 2026-05-07 05:40 | 48.29200 | 2.60766 | 37041 ft | 457 kts | 142° |
| 2026-05-07 05:41 | 48.23763 | 2.65596 | 37041 ft | 454 kts | 157° |
| 2026-05-07 05:41 | 48.18086 | 2.69676 | 37032 ft | 455 kts | 153° |
| 2026-05-07 05:42 | 48.12527 | 2.74226 | 37034 ft | 456 kts | 152° |
| 2026-05-07 05:42 | 48.06932 | 2.78686 | 37031 ft | 455 kts | 158° |
| 2026-05-07 05:43 | 48.01114 | 2.82443 | 37037 ft | 455 kts | 158° |
| 2026-05-07 05:43 | 47.95283 | 2.86113 | 37041 ft | 455 kts | 159° |
| 2026-05-07 05:44 | 47.89438 | 2.89794 | 37039 ft | 456 kts | 158° |
| 2026-05-07 05:44 | 47.83598 | 2.93487 | 37041 ft | 456 kts | 158° |
| 2026-05-07 05:45 | 47.77758 | 2.97175 | 37040 ft | 456 kts | 158° |
| 2026-05-07 05:45 | 47.71911 | 3.00850 | 37037 ft | 456 kts | 158° |
| 2026-05-07 05:46 | 47.66068 | 3.04518 | 37039 ft | 456 kts | 158° |
| 2026-05-07 05:46 | 47.60212 | 3.08188 | 37041 ft | 456 kts | 159° |
| 2026-05-07 05:47 | 47.54362 | 3.11849 | 37043 ft | 456 kts | 159° |
| 2026-05-07 05:47 | 47.48503 | 3.15504 | 37044 ft | 457 kts | 159° |
| 2026-05-07 05:48 | 47.42647 | 3.19138 | 37042 ft | 457 kts | 159° |
| 2026-05-07 05:48 | 47.36791 | 3.22766 | 37044 ft | 457 kts | 159° |
| 2026-05-07 05:49 | 47.31919 | 3.25782 | 37040 ft | 457 kts | 159° |
| 2026-05-07 05:49 | 47.25073 | 3.30006 | 37039 ft | 457 kts | 159° |
| 2026-05-07 05:50 | 47.20190 | 3.33011 | 37038 ft | 457 kts | 159° |
| 2026-05-07 05:50 | 47.14328 | 3.36616 | 37040 ft | 457 kts | 159° |
| 2026-05-07 05:51 | 47.08460 | 3.40216 | 37042 ft | 457 kts | 159° |
| 2026-05-07 05:51 | 47.02586 | 3.43805 | 37043 ft | 457 kts | 159° |
| 2026-05-07 05:52 | 46.96716 | 3.47383 | 37046 ft | 457 kts | 159° |
| 2026-05-07 05:52 | 46.90840 | 3.50962 | 37044 ft | 457 kts | 159° |
| 2026-05-07 05:53 | 46.84963 | 3.54520 | 37043 ft | 457 kts | 159° |
| 2026-05-07 05:53 | 46.79085 | 3.58082 | 37044 ft | 457 kts | 159° |
| 2026-05-07 05:54 | 46.73665 | 3.62921 | 37043 ft | 461 kts | 138° |
| 2026-05-07 05:54 | 46.71505 | 3.66379 | 37039 ft | 463 kts | 127° |
| 2026-05-07 05:54 | 46.69833 | 3.70392 | 37034 ft | 464 kts | 115° |
| 2026-05-07 05:54 | 46.68715 | 3.74793 | 37030 ft | 465 kts | 104° |
| 2026-05-07 05:55 | 46.67945 | 3.79375 | 37026 ft | 465 kts | 104° |
| 2026-05-07 05:55 | 46.66392 | 3.88529 | 37022 ft | 466 kts | 104° |
| 2026-05-07 05:56 | 46.64812 | 3.97690 | 37026 ft | 467 kts | 104° |
| 2026-05-07 05:56 | 46.63218 | 4.06859 | 37030 ft | 467 kts | 104° |
| 2026-05-07 05:57 | 46.61615 | 4.16028 | 37036 ft | 468 kts | 105° |
| 2026-05-07 05:57 | 46.60013 | 4.25207 | 37040 ft | 468 kts | 105° |
| 2026-05-07 05:58 | 46.58416 | 4.34310 | 37044 ft | 468 kts | 105° |
| 2026-05-07 05:58 | 46.56794 | 4.43469 | 37047 ft | 468 kts | 105° |
| 2026-05-07 05:59 | 46.55159 | 4.52629 | 37051 ft | 468 kts | 105° |
| 2026-05-07 05:59 | 46.53527 | 4.61777 | 37046 ft | 468 kts | 105° |
| 2026-05-07 06:00 | 46.51887 | 4.70935 | 37041 ft | 468 kts | 105° |
| 2026-05-07 06:00 | 46.50240 | 4.80080 | 37033 ft | 469 kts | 105° |
| 2026-05-07 06:01 | 46.48571 | 4.89231 | 37041 ft | 469 kts | 105° |
| 2026-05-07 06:01 | 46.46899 | 4.98379 | 37033 ft | 469 kts | 105° |
| 2026-05-07 06:02 | 46.45225 | 5.07523 | 37041 ft | 469 kts | 105° |
| 2026-05-07 06:02 | 46.43544 | 5.16676 | 37034 ft | 470 kts | 105° |
| 2026-05-07 06:03 | 46.41861 | 5.25831 | 37039 ft | 470 kts | 106° |
| 2026-05-07 06:03 | 46.40158 | 5.34980 | 37042 ft | 470 kts | 106° |
| 2026-05-07 06:04 | 46.37610 | 5.43630 | 37042 ft | 466 kts | 124° |
| 2026-05-07 06:04 | 46.33602 | 5.50949 | 37042 ft | 464 kts | 132° |
| 2026-05-07 06:05 | 46.29404 | 5.58057 | 37038 ft | 465 kts | 132° |
| 2026-05-07 06:05 | 46.25204 | 5.65162 | 37034 ft | 465 kts | 132° |
| 2026-05-07 06:06 | 46.21000 | 5.72266 | 37038 ft | 465 kts | 133° |
| 2026-05-07 06:06 | 46.16785 | 5.79358 | 37030 ft | 466 kts | 133° |
| 2026-05-07 06:07 | 46.12586 | 5.86400 | 37034 ft | 466 kts | 133° |
| 2026-05-07 06:07 | 46.08357 | 5.93471 | 37032 ft | 466 kts | 133° |
| 2026-05-07 06:08 | 46.04118 | 6.00539 | 37033 ft | 466 kts | 133° |
| 2026-05-07 06:08 | 45.99877 | 6.07595 | 37037 ft | 466 kts | 133° |
| 2026-05-07 06:09 | 45.95636 | 6.14651 | 37035 ft | 467 kts | 133° |
| 2026-05-07 06:09 | 45.91384 | 6.21694 | 37041 ft | 467 kts | 134° |
| 2026-05-07 06:10 | 45.87129 | 6.28730 | 37037 ft | 466 kts | 133° |
| 2026-05-07 06:10 | 45.82871 | 6.35748 | 37036 ft | 467 kts | 134° |
| 2026-05-07 06:11 | 45.78078 | 6.41895 | 37035 ft | 460 kts | 148° |
| 2026-05-07 06:11 | 45.72844 | 6.47202 | 37032 ft | 461 kts | 148° |
| 2026-05-07 06:12 | 45.67628 | 6.52525 | 37033 ft | 461 kts | 148° |
| 2026-05-07 06:12 | 45.62393 | 6.57853 | 37034 ft | 461 kts | 148° |
| 2026-05-07 06:13 | 45.57154 | 6.63163 | 37036 ft | 462 kts | 148° |
| 2026-05-07 06:13 | 45.51913 | 6.68459 | 37035 ft | 462 kts | 148° |
| 2026-05-07 06:14 | 45.46663 | 6.73746 | 37032 ft | 462 kts | 148° |
| 2026-05-07 06:14 | 45.41402 | 6.79030 | 37024 ft | 462 kts | 148° |
| 2026-05-07 06:15 | 45.36144 | 6.84310 | 37032 ft | 463 kts | 148° |
| 2026-05-07 06:15 | 45.30913 | 6.89547 | 37023 ft | 463 kts | 149° |
| 2026-05-07 06:16 | 45.25730 | 6.95001 | 37011 ft | 467 kts | 141° |
| 2026-05-07 06:16 | 45.21057 | 7.01423 | 37008 ft | 468 kts | 140° |
| 2026-05-07 06:17 | 45.16393 | 7.07861 | 37008 ft | 468 kts | 140° |
| 2026-05-07 06:17 | 45.11714 | 7.14300 | 37006 ft | 469 kts | 138° |
| 2026-05-07 06:18 | 45.07685 | 7.21639 | 37004 ft | 474 kts | 128° |
| 2026-05-07 06:18 | 45.03898 | 7.29294 | 37003 ft | 475 kts | 128° |
| 2026-05-07 06:19 | 45.00099 | 7.36943 | 37001 ft | 476 kts | 128° |
| 2026-05-07 06:19 | 44.95918 | 7.44105 | 36997 ft | 470 kts | 138° |
| 2026-05-07 06:20 | 44.91355 | 7.50714 | 36986 ft | 470 kts | 138° |
| 2026-05-07 06:20 | 44.86792 | 7.57316 | 36981 ft | 470 kts | 139° |
| 2026-05-07 06:21 | 44.82227 | 7.63905 | 36995 ft | 470 kts | 139° |
| 2026-05-07 06:21 | 44.77659 | 7.70481 | 37001 ft | 469 kts | 139° |
| 2026-05-07 06:22 | 44.73088 | 7.77051 | 37001 ft | 469 kts | 139° |
| 2026-05-07 06:22 | 44.66272 | 7.86839 | 37000 ft | 469 kts | 139° |
| 2026-05-07 06:23 | 44.61697 | 7.93383 | 36994 ft | 469 kts | 139° |
| 2026-05-07 06:23 | 44.57112 | 7.99912 | 36991 ft | 469 kts | 139° |
| 2026-05-07 06:24 | 44.52526 | 8.06433 | 36989 ft | 469 kts | 139° |
| 2026-05-07 06:24 | 44.47940 | 8.12946 | 36985 ft | 469 kts | 139° |
| 2026-05-07 06:25 | 44.43352 | 8.19442 | 36982 ft | 469 kts | 140° |
| 2026-05-07 06:25 | 44.38756 | 8.25933 | 36985 ft | 469 kts | 140° |
| 2026-05-07 06:26 | 44.34169 | 8.32401 | 36982 ft | 468 kts | 140° |
| 2026-05-07 06:26 | 44.29580 | 8.38858 | 36984 ft | 468 kts | 140° |
| 2026-05-07 06:27 | 44.24992 | 8.45296 | 36981 ft | 467 kts | 140° |
| 2026-05-07 06:27 | 44.20406 | 8.51716 | 36978 ft | 467 kts | 140° |
| 2026-05-07 06:28 | 44.15816 | 8.58115 | 36975 ft | 467 kts | 140° |
| 2026-05-07 06:28 | 44.11220 | 8.64504 | 36972 ft | 467 kts | 140° |
| 2026-05-07 06:29 | 44.06624 | 8.70885 | 36971 ft | 467 kts | 140° |
| 2026-05-07 06:29 | 44.02030 | 8.77256 | 36972 ft | 467 kts | 140° |
| 2026-05-07 06:30 | 43.97434 | 8.83630 | 36977 ft | 467 kts | 140° |
| 2026-05-07 06:30 | 43.92832 | 8.89988 | 36979 ft | 466 kts | 141° |
| 2026-05-07 06:31 | 43.88253 | 8.96285 | 36967 ft | 466 kts | 141° |
| 2026-05-07 06:31 | 43.83643 | 9.02611 | 36973 ft | 466 kts | 141° |
| 2026-05-07 06:32 | 43.79032 | 9.08924 | 36975 ft | 466 kts | 141° |
| 2026-05-07 06:32 | 43.74419 | 9.15230 | 36982 ft | 466 kts | 141° |
| 2026-05-07 06:33 | 43.69801 | 9.21519 | 36991 ft | 466 kts | 141° |
| 2026-05-07 06:33 | 43.65965 | 9.26742 | 36990 ft | 466 kts | 141° |
| 2026-05-07 06:34 | 43.60568 | 9.34079 | 36996 ft | 465 kts | 141° |
| 2026-05-07 06:34 | 43.55952 | 9.40333 | 36999 ft | 465 kts | 141° |
| 2026-05-07 06:35 | 43.51337 | 9.46575 | 36997 ft | 465 kts | 141° |
| 2026-05-07 06:35 | 43.47496 | 9.51760 | 36995 ft | 465 kts | 141° |
| 2026-05-07 06:36 | 43.42875 | 9.57975 | 37001 ft | 464 kts | 142° |
| 2026-05-07 06:36 | 43.38252 | 9.64179 | 37006 ft | 464 kts | 142° |
| 2026-05-07 06:37 | 43.33626 | 9.70379 | 37010 ft | 464 kts | 142° |
| 2026-05-07 06:37 | 43.28997 | 9.76569 | 37011 ft | 464 kts | 142° |
| 2026-05-07 06:38 | 43.24338 | 9.82698 | 37016 ft | 462 kts | 144° |
| 2026-05-07 06:38 | 43.19443 | 9.88365 | 37017 ft | 459 kts | 147° |
| 2026-05-07 06:39 | 43.14686 | 9.94278 | 37012 ft | 463 kts | 143° |
| 2026-05-07 06:39 | 43.10047 | 10.00407 | 37016 ft | 464 kts | 142° |
| 2026-05-07 06:40 | 43.05466 | 10.06630 | 37015 ft | 464 kts | 141° |
| 2026-05-07 06:40 | 43.00908 | 10.12794 | 37016 ft | 464 kts | 142° |
| 2026-05-07 06:41 | 42.96299 | 10.18949 | 37013 ft | 463 kts | 142° |
| 2026-05-07 06:41 | 42.91679 | 10.25071 | 37014 ft | 463 kts | 142° |
| 2026-05-07 06:42 | 42.87053 | 10.31196 | 37015 ft | 463 kts | 142° |
| 2026-05-07 06:42 | 42.82434 | 10.37317 | 37013 ft | 463 kts | 142° |
| 2026-05-07 06:43 | 42.77815 | 10.43434 | 37015 ft | 463 kts | 142° |
| 2026-05-07 06:43 | 42.73190 | 10.49536 | 37015 ft | 463 kts | 143° |
| 2026-05-07 06:44 | 42.68557 | 10.55624 | 37011 ft | 463 kts | 142° |
| 2026-05-07 06:44 | 42.63914 | 10.61722 | 37006 ft | 464 kts | 142° |
| 2026-05-07 06:45 | 42.59278 | 10.67812 | 37005 ft | 464 kts | 142° |
| 2026-05-07 06:45 | 42.54633 | 10.73885 | 37004 ft | 464 kts | 143° |
| 2026-05-07 06:46 | 42.49975 | 10.79954 | 36998 ft | 464 kts | 143° |
| 2026-05-07 06:46 | 42.45322 | 10.86021 | 37005 ft | 464 kts | 142° |
| 2026-05-07 06:47 | 42.40663 | 10.92077 | 37006 ft | 464 kts | 143° |
| 2026-05-07 06:47 | 42.36000 | 10.98125 | 37013 ft | 464 kts | 142° |
| 2026-05-07 06:48 | 42.31332 | 11.04168 | 37012 ft | 464 kts | 142° |
| 2026-05-07 06:48 | 42.26688 | 11.10171 | 37012 ft | 464 kts | 143° |
| 2026-05-07 06:49 | 42.22013 | 11.16190 | 37006 ft | 464 kts | 143° |
| 2026-05-07 06:49 | 42.17330 | 11.22207 | 37005 ft | 464 kts | 143° |
| 2026-05-07 06:50 | 42.12646 | 11.28210 | 37006 ft | 465 kts | 142° |
| 2026-05-07 06:50 | 42.07963 | 11.34208 | 37006 ft | 465 kts | 142° |
| 2026-05-07 06:51 | 42.03306 | 11.40252 | 37010 ft | 466 kts | 141° |
| 2026-05-07 06:51 | 41.98820 | 11.46589 | 37012 ft | 468 kts | 139° |
| 2026-05-07 06:52 | 41.94434 | 11.52986 | 37012 ft | 468 kts | 139° |
| 2026-05-07 06:52 | 41.89990 | 11.59370 | 37012 ft | 468 kts | 139° |
| 2026-05-07 06:53 | 41.85472 | 11.65732 | 37014 ft | 468 kts | 140° |
| 2026-05-07 06:53 | 41.80993 | 11.71991 | 37019 ft | 468 kts | 140° |
| 2026-05-07 06:54 | 41.76487 | 11.78307 | 37021 ft | 469 kts | 139° |
| 2026-05-07 06:54 | 41.71987 | 11.84627 | 37018 ft | 469 kts | 139° |
| 2026-05-07 06:55 | 41.67484 | 11.90943 | 37017 ft | 469 kts | 139° |
| 2026-05-07 06:55 | 41.62974 | 11.97247 | 37019 ft | 469 kts | 139° |
| 2026-05-07 06:56 | 41.58456 | 12.03548 | 37027 ft | 469 kts | 139° |
| 2026-05-07 06:56 | 41.53929 | 12.09832 | 37019 ft | 470 kts | 139° |
| 2026-05-07 06:57 | 41.49394 | 12.16119 | 37021 ft | 470 kts | 139° |
| 2026-05-07 06:57 | 41.44861 | 12.22408 | 37016 ft | 470 kts | 139° |
| 2026-05-07 06:58 | 41.40323 | 12.28683 | 37015 ft | 470 kts | 139° |
| 2026-05-07 06:58 | 41.35779 | 12.34949 | 37017 ft | 471 kts | 139° |
| 2026-05-07 06:59 | 41.31218 | 12.41215 | 37015 ft | 471 kts | 139° |
| 2026-05-07 06:59 | 41.26650 | 12.47462 | 37017 ft | 471 kts | 139° |
| 2026-05-07 07:00 | 41.24366 | 12.50585 | 36891 ft | 472 kts | 139° |
| 2026-05-07 07:00 | 41.22058 | 12.53739 | 35893 ft | 480 kts | 139° |
| 2026-05-07 07:00 | 41.19718 | 12.56937 | 35037 ft | 484 kts | 139° |
| 2026-05-07 07:00 | 41.17383 | 12.60134 | 34331 ft | 483 kts | 138° |
| 2026-05-07 07:01 | 41.15046 | 12.63333 | 33526 ft | 479 kts | 138° |
| 2026-05-07 07:01 | 41.12744 | 12.66483 | 32408 ft | 473 kts | 138° |
| 2026-05-07 07:01 | 41.10477 | 12.69580 | 31752 ft | 458 kts | 138° |
| 2026-05-07 07:01 | 41.08325 | 12.72520 | 31240 ft | 442 kts | 138° |
| 2026-05-07 07:02 | 41.06198 | 12.75418 | 30707 ft | 436 kts | 138° |
| 2026-05-07 07:02 | 41.04086 | 12.78287 | 30189 ft | 433 kts | 138° |
| 2026-05-07 07:02 | 41.01987 | 12.81129 | 29613 ft | 429 kts | 138° |
| 2026-05-07 07:02 | 40.99910 | 12.83939 | 29102 ft | 424 kts | 138° |
| 2026-05-07 07:03 | 40.97854 | 12.86718 | 28600 ft | 420 kts | 138° |
| 2026-05-07 07:03 | 40.95827 | 12.89462 | 28100 ft | 415 kts | 138° |
| 2026-05-07 07:03 | 40.93830 | 12.92205 | 27615 ft | 412 kts | 135° |
| 2026-05-07 07:03 | 40.92104 | 12.95223 | 27136 ft | 412 kts | 126° |
| 2026-05-07 07:04 | 40.90756 | 12.98558 | 26653 ft | 412 kts | 116° |
| 2026-05-07 07:04 | 40.89814 | 13.02136 | 26188 ft | 411 kts | 108° |
| 2026-05-07 07:04 | 40.89050 | 13.05764 | 25726 ft | 408 kts | 108° |
| 2026-05-07 07:04 | 40.88284 | 13.09359 | 25277 ft | 404 kts | 109° |
| 2026-05-07 07:05 | 40.87521 | 13.12920 | 24839 ft | 401 kts | 109° |
| 2026-05-07 07:05 | 40.86760 | 13.16447 | 24397 ft | 398 kts | 109° |
| 2026-05-07 07:05 | 40.86004 | 13.19946 | 23970 ft | 395 kts | 109° |
| 2026-05-07 07:05 | 40.85250 | 13.23424 | 23523 ft | 393 kts | 109° |
| 2026-05-07 07:06 | 40.84499 | 13.26879 | 23055 ft | 390 kts | 109° |
| 2026-05-07 07:06 | 40.83755 | 13.30300 | 22623 ft | 386 kts | 109° |
| 2026-05-07 07:06 | 40.83018 | 13.33689 | 22179 ft | 383 kts | 109° |
| 2026-05-07 07:06 | 40.82286 | 13.37055 | 21739 ft | 380 kts | 109° |
| 2026-05-07 07:07 | 40.81556 | 13.40404 | 21299 ft | 378 kts | 109° |
| 2026-05-07 07:07 | 40.80831 | 13.43734 | 20868 ft | 376 kts | 109° |
| 2026-05-07 07:07 | 40.80108 | 13.47053 | 20413 ft | 375 kts | 109° |
| 2026-05-07 07:07 | 40.79393 | 13.50314 | 19976 ft | 374 kts | 109° |
| 2026-05-07 07:08 | 40.78669 | 13.53611 | 19523 ft | 373 kts | 109° |
| 2026-05-07 07:08 | 40.77948 | 13.56893 | 19074 ft | 372 kts | 109° |
| 2026-05-07 07:08 | 40.77224 | 13.60180 | 18628 ft | 372 kts | 109° |
| 2026-05-07 07:08 | 40.76501 | 13.63460 | 18157 ft | 372 kts | 109° |
| 2026-05-07 07:09 | 40.75807 | 13.66739 | 17689 ft | 371 kts | 105° |
| 2026-05-07 07:09 | 40.75533 | 13.70140 | 17242 ft | 373 kts | 91° |
| 2026-05-07 07:09 | 40.75835 | 13.73545 | 16802 ft | 374 kts | 78° |
| 2026-05-07 07:09 | 40.76700 | 13.76778 | 16490 ft | 376 kts | 64° |
| 2026-05-07 07:10 | 40.78005 | 13.79711 | 16135 ft | 374 kts | 58° |
| 2026-05-07 07:10 | 40.79387 | 13.82618 | 15796 ft | 372 kts | 58° |
| 2026-05-07 07:10 | 40.80751 | 13.85481 | 15643 ft | 363 kts | 58° |
| 2026-05-07 07:10 | 40.82075 | 13.88266 | 15507 ft | 353 kts | 58° |
| 2026-05-07 07:11 | 40.83360 | 13.90977 | 15388 ft | 344 kts | 58° |
| 2026-05-07 07:11 | 40.84610 | 13.93619 | 15265 ft | 335 kts | 58° |
| 2026-05-07 07:11 | 40.85814 | 13.96213 | 15140 ft | 327 kts | 59° |
| 2026-05-07 07:11 | 40.86973 | 13.98762 | 15022 ft | 318 kts | 59° |
| 2026-05-07 07:12 | 40.88083 | 14.01228 | 14711 ft | 309 kts | 59° |
| 2026-05-07 07:12 | 40.89171 | 14.03650 | 14322 ft | 304 kts | 59° |
| 2026-05-07 07:12 | 40.90240 | 14.06026 | 14150 ft | 300 kts | 59° |
| 2026-05-07 07:12 | 40.91309 | 14.08396 | 13979 ft | 298 kts | 59° |
| 2026-05-07 07:13 | 40.92374 | 14.10750 | 13775 ft | 297 kts | 59° |
| 2026-05-07 07:13 | 40.93420 | 14.13056 | 13572 ft | 296 kts | 59° |
| 2026-05-07 07:13 | 40.94478 | 14.15392 | 13378 ft | 295 kts | 59° |
| 2026-05-07 07:13 | 40.95543 | 14.17748 | 13181 ft | 294 kts | 59° |
| 2026-05-07 07:14 | 40.96576 | 14.20034 | 12994 ft | 293 kts | 59° |
| 2026-05-07 07:14 | 40.97623 | 14.22355 | 12800 ft | 292 kts | 59° |
| 2026-05-07 07:14 | 40.98663 | 14.24662 | 12616 ft | 291 kts | 59° |
| 2026-05-07 07:14 | 40.99699 | 14.26962 | 12418 ft | 290 kts | 58° |
| 2026-05-07 07:15 | 41.00737 | 14.29263 | 12223 ft | 289 kts | 58° |
| 2026-05-07 07:15 | 41.01756 | 14.31520 | 12036 ft | 288 kts | 58° |
| 2026-05-07 07:15 | 41.02786 | 14.33798 | 11850 ft | 287 kts | 58° |
| 2026-05-07 07:15 | 41.03811 | 14.36068 | 11659 ft | 286 kts | 58° |
| 2026-05-07 07:16 | 41.04831 | 14.38330 | 11480 ft | 285 kts | 58° |
| 2026-05-07 07:16 | 41.05847 | 14.40582 | 11288 ft | 284 kts | 58° |
| 2026-05-07 07:16 | 41.06857 | 14.42829 | 11108 ft | 284 kts | 58° |
| 2026-05-07 07:16 | 41.07870 | 14.45073 | 10862 ft | 284 kts | 57° |
| 2026-05-07 07:17 | 41.08916 | 14.47313 | 10485 ft | 287 kts | 56° |
| 2026-05-07 07:17 | 41.09976 | 14.49537 | 10282 ft | 282 kts | 56° |
| 2026-05-07 07:17 | 41.11041 | 14.51759 | 9916 ft | 284 kts | 55° |
| 2026-05-07 07:17 | 41.12071 | 14.53913 | 9637 ft | 276 kts | 56° |
| 2026-05-07 07:18 | 41.13012 | 14.56118 | 9200 ft | 275 kts | 71° |
| 2026-05-07 07:18 | 41.13173 | 14.58624 | 8739 ft | 276 kts | 103° |
| 2026-05-07 07:18 | 41.12366 | 14.60866 | 8355 ft | 268 kts | 135° |
| 2026-05-07 07:18 | 41.10923 | 14.62349 | 8003 ft | 262 kts | 152° |
| 2026-05-07 07:19 | 41.09375 | 14.63633 | 7641 ft | 262 kts | 152° |
| 2026-05-07 07:19 | 41.07766 | 14.64744 | 7288 ft | 258 kts | 169° |
| 2026-05-07 07:19 | 41.06030 | 14.64676 | 6804 ft | 247 kts | 205° |
| 2026-05-07 07:19 | 41.04709 | 14.63404 | 6538 ft | 230 kts | 234° |
| 2026-05-07 07:20 | 41.03857 | 14.61660 | 6227 ft | 221 kts | 239° |
| 2026-05-07 07:20 | 41.03055 | 14.59913 | 5909 ft | 222 kts | 238° |
| 2026-05-07 07:20 | 41.02519 | 14.58754 | 5683 ft | 224 kts | 238° |
| 2026-05-07 07:20 | 41.01698 | 14.56994 | 5350 ft | 223 kts | 238° |
| 2026-05-07 07:21 | 41.00633 | 14.54714 | 4922 ft | 217 kts | 237° |
| 2026-05-07 07:21 | 40.99848 | 14.53034 | 4606 ft | 212 kts | 237° |
| 2026-05-07 07:21 | 40.99331 | 14.51928 | 4379 ft | 206 kts | 237° |
| 2026-05-07 07:21 | 40.98584 | 14.50334 | 4104 ft | 203 kts | 238° |
| 2026-05-07 07:22 | 40.97862 | 14.48792 | 3825 ft | 194 kts | 238° |
| 2026-05-07 07:22 | 40.97169 | 14.47311 | 3531 ft | 185 kts | 238° |
| 2026-05-07 07:22 | 40.96496 | 14.45875 | 3269 ft | 179 kts | 238° |
| 2026-05-07 07:22 | 40.95868 | 14.44536 | 3004 ft | 167 kts | 238° |
| 2026-05-07 07:23 | 40.95279 | 14.43280 | 2784 ft | 153 kts | 238° |
| 2026-05-07 07:23 | 40.94733 | 14.42117 | 2543 ft | 145 kts | 239° |
| 2026-05-07 07:23 | 40.94205 | 14.40993 | 2346 ft | 143 kts | 239° |
| 2026-05-07 07:23 | 40.93680 | 14.39874 | 2126 ft | 143 kts | 238° |
| 2026-05-07 07:24 | 40.93153 | 14.38751 | 1918 ft | 144 kts | 238° |
| 2026-05-07 07:24 | 40.92624 | 14.37626 | 1709 ft | 144 kts | 239° |
| 2026-05-07 07:24 | 40.92096 | 14.36501 | 1473 ft | 144 kts | 239° |
| 2026-05-07 07:24 | 40.91566 | 14.35373 | 1310 ft | 144 kts | 239° |
| 2026-05-07 07:25 | 40.90504 | 14.33113 | 798 ft | 143 kts | 239° |
| 2026-05-07 07:25 | 40.89970 | 14.31992 | 616 ft | 145 kts | 239° |
| 2026-05-07 07:25 | 40.89444 | 14.30865 | 383 ft | 144 kts | 239° |
| 2026-05-07 07:26 | 40.88927 | 14.29757 | 250 ft | 133 kts | 239° |
| 2026-05-07 07:26 | 40.88529 | 14.28921 | 271 ft | 76 kts | 237° |
| 2026-05-07 07:26 | 40.88391 | 14.28636 | 278 ft | 28 kts | 238° |
| 2026-05-07 07:26 | 40.88302 | 14.28490 | 281 ft | 13 kts | 214° |
| 2026-05-07 07:27 | 40.88274 | 14.28463 | 282 ft | 0 kts | 217° |
| 2026-05-07 07:27 | 40.88240 | 14.28432 | 283 ft | 7 kts | 212° |
| 2026-05-07 07:27 | 40.88207 | 14.28407 | 284 ft | 4 kts | 210° |
| 2026-05-07 07:27 | 40.88185 | 14.28391 | 289 ft | 6 kts | 207° |
| 2026-05-07 07:28 | 40.88143 | 14.28363 | 286 ft | 10 kts | 208° |
| 2026-05-07 07:28 | 40.88081 | 14.28288 | 288 ft | 14 kts | 256° |
| 2026-05-07 07:28 | 40.88029 | 14.28155 | 293 ft | 15 kts | 230° |
| 2026-05-07 07:28 | 40.87968 | 14.28159 | 295 ft | 8 kts | 112° |
| 2026-05-07 07:29 | 40.87956 | 14.28236 | 291 ft | 9 kts | 98° |
| 2026-05-07 07:29 | 40.87947 | 14.28318 | 289 ft | 9 kts | 98° |
| 2026-05-07 07:29 | 40.87911 | 14.28345 | 293 ft | 6 kts | 189° |
| 2026-05-07 07:29 | 40.87880 | 14.28340 | 290 ft | 3 kts | 186° |
| 2026-05-07 07:30 | 40.87877 | 14.28340 | 290 ft | 0 kts | 186° |